sensor_id;sensor_type;location;lat;lon;timestamp;temperature;humidity
67557;DHT22;54387;53.526;49.300;2023-04-24T00:00:22;10.80;40.10
67557;DHT22;54387;53.526;49.300;2023-04-24T00:02:48;10.70;40.30
67557;DHT22;54387;53.526;49.300;2023-04-24T00:05:14;10.70;40.40
67557;DHT22;54387;53.526;49.300;2023-04-24T00:07:41;10.70;40.40
67557;DHT22;54387;53.526;49.300;2023-04-24T00:10:07;10.60;40.30
67557;DHT22;54387;53.526;49.300;2023-04-24T00:12:33;10.60;40.40
67557;DHT22;54387;53.526;49.300;2023-04-24T00:14:59;10.60;40.90
67557;DHT22;54387;53.526;49.300;2023-04-24T00:17:26;10.60;40.90
67557;DHT22;54387;53.526;49.300;2023-04-24T00:19:52;10.60;40.70
67557;DHT22;54387;53.526;49.300;2023-04-24T00:22:24;10.50;40.70
67557;DHT22;54387;53.526;49.300;2023-04-24T00:24:50;10.60;41.30
67557;DHT22;54387;53.526;49.300;2023-04-24T00:27:16;10.50;41.10
67557;DHT22;54387;53.526;49.300;2023-04-24T00:29:42;10.50;41.20
67557;DHT22;54387;53.526;49.300;2023-04-24T00:32:08;10.50;41.30
67557;DHT22;54387;53.526;49.300;2023-04-24T00:34:34;10.40;41.30
67557;DHT22;54387;53.526;49.300;2023-04-24T00:37:00;10.50;41.50
67557;DHT22;54387;53.526;49.300;2023-04-24T00:39:26;10.50;41.60
67557;DHT22;54387;53.526;49.300;2023-04-24T00:41:52;10.40;41.50
67557;DHT22;54387;53.526;49.300;2023-04-24T00:44:19;10.40;41.80
67557;DHT22;54387;53.526;49.300;2023-04-24T00:46:45;10.40;41.80
67557;DHT22;54387;53.526;49.300;2023-04-24T00:49:11;10.40;42.00
67557;DHT22;54387;53.526;49.300;2023-04-24T00:51:38;10.40;42.20
67557;DHT22;54387;53.526;49.300;2023-04-24T00:54:04;10.40;42.30
67557;DHT22;54387;53.526;49.300;2023-04-24T00:56:30;10.40;42.40
67557;DHT22;54387;53.526;49.300;2023-04-24T00:58:56;10.40;42.20
67557;DHT22;54387;53.526;49.300;2023-04-24T01:01:22;10.40;42.30
67557;DHT22;54387;53.526;49.300;2023-04-24T01:03:49;10.40;42.30
67557;DHT22;54387;53.526;49.300;2023-04-24T01:06:15;10.40;42.30
67557;DHT22;54387;53.526;49.300;2023-04-24T01:08:41;10.40;42.40
67557;DHT22;54387;53.526;49.300;2023-04-24T01:11:08;10.40;42.40
67557;DHT22;54387;53.526;49.300;2023-04-24T01:13:34;10.40;43.40
67557;DHT22;54387;53.526;49.300;2023-04-24T01:16:00;10.40;42.50
67557;DHT22;54387;53.526;49.300;2023-04-24T01:18:26;10.40;42.60
67557;DHT22;54387;53.526;49.300;2023-04-24T01:20:53;10.40;42.60
67557;DHT22;54387;53.526;49.300;2023-04-24T01:23:22;10.40;42.60
67557;DHT22;54387;53.526;49.300;2023-04-24T01:25:48;10.40;42.60
67557;DHT22;54387;53.526;49.300;2023-04-24T01:28:15;10.40;42.70
67557;DHT22;54387;53.526;49.300;2023-04-24T01:30:41;10.30;42.60
67557;DHT22;54387;53.526;49.300;2023-04-24T01:33:07;10.30;43.70
67557;DHT22;54387;53.526;49.300;2023-04-24T01:35:33;10.30;42.60
67557;DHT22;54387;53.526;49.300;2023-04-24T01:38:00;10.30;42.60
67557;DHT22;54387;53.526;49.300;2023-04-24T01:40:26;10.30;42.70
67557;DHT22;54387;53.526;49.300;2023-04-24T01:42:52;10.30;42.70
67557;DHT22;54387;53.526;49.300;2023-04-24T01:45:18;10.30;42.70
67557;DHT22;54387;53.526;49.300;2023-04-24T01:47:45;10.30;42.80
67557;DHT22;54387;53.526;49.300;2023-04-24T01:50:11;10.30;42.90
67557;DHT22;54387;53.526;49.300;2023-04-24T01:52:37;10.30;42.90
67557;DHT22;54387;53.526;49.300;2023-04-24T01:55:04;10.30;42.90
67557;DHT22;54387;53.526;49.300;2023-04-24T01:57:31;10.30;42.80
67557;DHT22;54387;53.526;49.300;2023-04-24T01:59:58;10.30;42.90
67557;DHT22;54387;53.526;49.300;2023-04-24T02:02:24;10.30;42.80
67557;DHT22;54387;53.526;49.300;2023-04-24T02:04:53;10.20;42.90
67557;DHT22;54387;53.526;49.300;2023-04-24T02:07:20;10.30;42.80
67557;DHT22;54387;53.526;49.300;2023-04-24T02:09:46;10.30;42.90
67557;DHT22;54387;53.526;49.300;2023-04-24T02:12:12;10.30;42.90
67557;DHT22;54387;53.526;49.300;2023-04-24T02:14:38;10.30;43.00
67557;DHT22;54387;53.526;49.300;2023-04-24T02:17:05;10.30;42.90
67557;DHT22;54387;53.526;49.300;2023-04-24T02:19:32;10.30;42.80
67557;DHT22;54387;53.526;49.300;2023-04-24T02:21:58;10.30;42.80
67557;DHT22;54387;53.526;49.300;2023-04-24T02:24:25;10.30;42.90
67557;DHT22;54387;53.526;49.300;2023-04-24T02:26:51;10.30;43.00
67557;DHT22;54387;53.526;49.300;2023-04-24T02:29:17;10.30;43.00
67557;DHT22;54387;53.526;49.300;2023-04-24T02:31:44;10.30;43.00
67557;DHT22;54387;53.526;49.300;2023-04-24T02:34:10;10.40;43.10
67557;DHT22;54387;53.526;49.300;2023-04-24T02:36:37;10.40;43.00
67557;DHT22;54387;53.526;49.300;2023-04-24T02:39:03;10.40;42.90
67557;DHT22;54387;53.526;49.300;2023-04-24T02:41:29;10.40;42.90
67557;DHT22;54387;53.526;49.300;2023-04-24T02:43:58;10.50;42.90
67557;DHT22;54387;53.526;49.300;2023-04-24T02:46:24;10.40;42.80
67557;DHT22;54387;53.526;49.300;2023-04-24T02:48:50;10.50;42.90
67557;DHT22;54387;53.526;49.300;2023-04-24T02:51:16;10.60;42.90
67557;DHT22;54387;53.526;49.300;2023-04-24T02:53:42;10.60;42.90
67557;DHT22;54387;53.526;49.300;2023-04-24T02:56:08;10.60;42.70
67557;DHT22;54387;53.526;49.300;2023-04-24T02:58:38;10.70;42.60
67557;DHT22;54387;53.526;49.300;2023-04-24T03:01:04;10.80;42.50
67557;DHT22;54387;53.526;49.300;2023-04-24T03:03:30;10.80;42.30
67557;DHT22;54387;53.526;49.300;2023-04-24T03:05:56;10.90;42.30
67557;DHT22;54387;53.526;49.300;2023-04-24T03:08:23;11.00;42.30
67557;DHT22;54387;53.526;49.300;2023-04-24T03:10:49;11.00;42.10
67557;DHT22;54387;53.526;49.300;2023-04-24T03:13:15;11.10;42.00
67557;DHT22;54387;53.526;49.300;2023-04-24T03:15:41;11.20;41.90
67557;DHT22;54387;53.526;49.300;2023-04-24T03:18:07;11.20;41.70
67557;DHT22;54387;53.526;49.300;2023-04-24T03:20:33;11.30;41.60
67557;DHT22;54387;53.526;49.300;2023-04-24T03:22:59;11.40;41.40
67557;DHT22;54387;53.526;49.300;2023-04-24T03:25:25;11.40;41.30
67557;DHT22;54387;53.526;49.300;2023-04-24T03:27:51;11.40;41.20
67557;DHT22;54387;53.526;49.300;2023-04-24T03:30:17;11.50;41.10
67557;DHT22;54387;53.526;49.300;2023-04-24T03:32:43;11.60;41.10
67557;DHT22;54387;53.526;49.300;2023-04-24T03:35:09;11.70;41.10
67557;DHT22;54387;53.526;49.300;2023-04-24T03:37:35;11.70;40.90
67557;DHT22;54387;53.526;49.300;2023-04-24T03:40:01;11.80;40.80
67557;DHT22;54387;53.526;49.300;2023-04-24T03:42:27;11.90;40.70
67557;DHT22;54387;53.526;49.300;2023-04-24T03:44:54;11.90;40.40
67557;DHT22;54387;53.526;49.300;2023-04-24T03:47:20;12.00;40.40
67557;DHT22;54387;53.526;49.300;2023-04-24T03:49:46;12.10;40.30
67557;DHT22;54387;53.526;49.300;2023-04-24T03:52:12;12.10;39.90
67557;DHT22;54387;53.526;49.300;2023-04-24T03:54:38;12.20;39.90
67557;DHT22;54387;53.526;49.300;2023-04-24T03:57:05;12.20;39.80
67557;DHT22;54387;53.526;49.300;2023-04-24T03:59:32;12.30;39.70
67557;DHT22;54387;53.526;49.300;2023-04-24T04:01:58;12.30;39.60
67557;DHT22;54387;53.526;49.300;2023-04-24T04:04:24;12.40;39.50
67557;DHT22;54387;53.526;49.300;2023-04-24T04:06:50;12.40;39.50
67557;DHT22;54387;53.526;49.300;2023-04-24T04:09:16;12.50;39.40
67557;DHT22;54387;53.526;49.300;2023-04-24T04:11:42;12.60;39.30
67557;DHT22;54387;53.526;49.300;2023-04-24T04:14:08;12.70;39.20
67557;DHT22;54387;53.526;49.300;2023-04-24T04:16:34;12.80;39.00
67557;DHT22;54387;53.526;49.300;2023-04-24T04:19:02;12.90;38.90
67557;DHT22;54387;53.526;49.300;2023-04-24T04:21:28;12.90;38.80
67557;DHT22;54387;53.526;49.300;2023-04-24T04:23:54;13.00;38.70
67557;DHT22;54387;53.526;49.300;2023-04-24T04:26:22;13.00;38.70
67557;DHT22;54387;53.526;49.300;2023-04-24T04:28:51;13.10;38.60
67557;DHT22;54387;53.526;49.300;2023-04-24T04:31:19;13.10;38.40
67557;DHT22;54387;53.526;49.300;2023-04-24T04:33:45;13.20;38.40
67557;DHT22;54387;53.526;49.300;2023-04-24T04:36:11;13.30;38.50
67557;DHT22;54387;53.526;49.300;2023-04-24T04:38:37;13.30;38.30
67557;DHT22;54387;53.526;49.300;2023-04-24T04:41:04;13.40;38.30
67557;DHT22;54387;53.526;49.300;2023-04-24T04:43:30;13.40;38.20
67557;DHT22;54387;53.526;49.300;2023-04-24T04:45:57;13.50;38.20
67557;DHT22;54387;53.526;49.300;2023-04-24T04:48:23;13.60;38.30
67557;DHT22;54387;53.526;49.300;2023-04-24T04:50:49;13.70;38.10
67557;DHT22;54387;53.526;49.300;2023-04-24T04:53:15;13.70;38.00
67557;DHT22;54387;53.526;49.300;2023-04-24T04:55:41;13.80;38.00
67557;DHT22;54387;53.526;49.300;2023-04-24T04:58:08;13.90;37.90
67557;DHT22;54387;53.526;49.300;2023-04-24T05:00:34;14.00;37.90
67557;DHT22;54387;53.526;49.300;2023-04-24T05:03:03;14.00;38.70
67557;DHT22;54387;53.526;49.300;2023-04-24T05:05:29;14.10;37.60
67557;DHT22;54387;53.526;49.300;2023-04-24T05:07:55;14.20;37.50
67557;DHT22;54387;53.526;49.300;2023-04-24T05:10:21;14.20;37.30
67557;DHT22;54387;53.526;49.300;2023-04-24T05:12:47;14.30;37.30
67557;DHT22;54387;53.526;49.300;2023-04-24T05:15:13;14.30;37.20
67557;DHT22;54387;53.526;49.300;2023-04-24T05:17:39;14.40;37.20
67557;DHT22;54387;53.526;49.300;2023-04-24T05:20:06;14.50;37.10
67557;DHT22;54387;53.526;49.300;2023-04-24T05:22:32;14.50;36.90
67557;DHT22;54387;53.526;49.300;2023-04-24T05:24:59;14.60;36.80
67557;DHT22;54387;53.526;49.300;2023-04-24T05:27:26;14.60;36.70
67557;DHT22;54387;53.526;49.300;2023-04-24T05:29:52;14.60;36.60
67557;DHT22;54387;53.526;49.300;2023-04-24T05:32:18;14.70;36.60
67557;DHT22;54387;53.526;49.300;2023-04-24T05:34:45;14.80;36.40
67557;DHT22;54387;53.526;49.300;2023-04-24T05:37:11;14.80;36.30
67557;DHT22;54387;53.526;49.300;2023-04-24T05:39:37;14.80;36.20
67557;DHT22;54387;53.526;49.300;2023-04-24T05:42:03;14.80;36.00
67557;DHT22;54387;53.526;49.300;2023-04-24T05:44:30;14.80;35.80
67557;DHT22;54387;53.526;49.300;2023-04-24T05:46:56;14.90;36.00
67557;DHT22;54387;53.526;49.300;2023-04-24T05:49:23;14.90;35.80
67557;DHT22;54387;53.526;49.300;2023-04-24T05:51:49;14.90;35.80
67557;DHT22;54387;53.526;49.300;2023-04-24T05:54:15;15.00;35.80
67557;DHT22;54387;53.526;49.300;2023-04-24T05:56:41;15.10;35.90
67557;DHT22;54387;53.526;49.300;2023-04-24T05:59:08;15.20;35.60
67557;DHT22;54387;53.526;49.300;2023-04-24T06:01:35;15.20;35.30
67557;DHT22;54387;53.526;49.300;2023-04-24T06:04:02;15.20;35.30
67557;DHT22;54387;53.526;49.300;2023-04-24T06:06:29;15.30;35.40
67557;DHT22;54387;53.526;49.300;2023-04-24T06:08:55;15.30;35.30
67557;DHT22;54387;53.526;49.300;2023-04-24T06:11:21;15.40;35.20
67557;DHT22;54387;53.526;49.300;2023-04-24T06:13:48;15.40;35.10
67557;DHT22;54387;53.526;49.300;2023-04-24T06:16:14;15.50;35.00
67557;DHT22;54387;53.526;49.300;2023-04-24T06:18:40;15.60;34.90
67557;DHT22;54387;53.526;49.300;2023-04-24T06:21:06;15.60;34.70
67557;DHT22;54387;53.526;49.300;2023-04-24T06:23:32;15.60;34.80
67557;DHT22;54387;53.526;49.300;2023-04-24T06:25:59;15.70;34.60
67557;DHT22;54387;53.526;49.300;2023-04-24T06:28:25;15.70;34.40
67557;DHT22;54387;53.526;49.300;2023-04-24T06:30:51;15.80;34.30
67557;DHT22;54387;53.526;49.300;2023-04-24T06:33:17;15.80;34.10
67557;DHT22;54387;53.526;49.300;2023-04-24T06:35:43;15.90;34.10
67557;DHT22;54387;53.526;49.300;2023-04-24T06:38:09;16.00;34.10
67557;DHT22;54387;53.526;49.300;2023-04-24T06:40:35;16.00;33.80
67557;DHT22;54387;53.526;49.300;2023-04-24T06:43:07;15.90;33.60
67557;DHT22;54387;53.526;49.300;2023-04-24T06:45:33;16.00;34.70
67557;DHT22;54387;53.526;49.300;2023-04-24T06:47:59;16.00;33.70
67557;DHT22;54387;53.526;49.300;2023-04-24T06:50:26;16.00;33.60
67557;DHT22;54387;53.526;49.300;2023-04-24T06:52:52;16.10;33.50
67557;DHT22;54387;53.526;49.300;2023-04-24T06:55:18;16.10;33.40
67557;DHT22;54387;53.526;49.300;2023-04-24T06:57:45;16.20;33.40
67557;DHT22;54387;53.526;49.300;2023-04-24T07:00:12;16.20;33.10
67557;DHT22;54387;53.526;49.300;2023-04-24T07:02:38;16.40;33.20
67557;DHT22;54387;53.526;49.300;2023-04-24T07:05:06;16.50;33.00
67557;DHT22;54387;53.526;49.300;2023-04-24T07:07:34;16.60;32.40
67557;DHT22;54387;53.526;49.300;2023-04-24T07:10:04;16.70;32.50
67557;DHT22;54387;53.526;49.300;2023-04-24T07:12:30;16.90;32.40
67557;DHT22;54387;53.526;49.300;2023-04-24T07:14:56;16.90;32.00
67557;DHT22;54387;53.526;49.300;2023-04-24T07:17:23;17.00;32.00
67557;DHT22;54387;53.526;49.300;2023-04-24T07:19:49;17.10;31.80
67557;DHT22;54387;53.526;49.300;2023-04-24T07:22:16;17.20;32.00
67557;DHT22;54387;53.526;49.300;2023-04-24T07:24:43;17.30;31.80
67557;DHT22;54387;53.526;49.300;2023-04-24T07:27:10;17.40;31.50
67557;DHT22;54387;53.526;49.300;2023-04-24T07:29:36;17.50;32.40
67557;DHT22;54387;53.526;49.300;2023-04-24T07:32:02;17.70;31.20
67557;DHT22;54387;53.526;49.300;2023-04-24T07:34:29;17.80;30.90
67557;DHT22;54387;53.526;49.300;2023-04-24T07:37:00;17.90;30.90
67557;DHT22;54387;53.526;49.300;2023-04-24T07:39:26;18.00;30.70
67557;DHT22;54387;53.526;49.300;2023-04-24T07:41:52;18.10;30.30
67557;DHT22;54387;53.526;49.300;2023-04-24T07:44:18;18.20;29.90
67557;DHT22;54387;53.526;49.300;2023-04-24T07:46:45;18.20;29.90
67557;DHT22;54387;53.526;49.300;2023-04-24T07:49:11;18.20;29.80
67557;DHT22;54387;53.526;49.300;2023-04-24T07:51:37;18.20;30.00
67557;DHT22;54387;53.526;49.300;2023-04-24T07:54:04;18.30;30.00
67557;DHT22;54387;53.526;49.300;2023-04-24T07:56:31;18.40;29.80
67557;DHT22;54387;53.526;49.300;2023-04-24T07:58:57;18.50;30.00
67557;DHT22;54387;53.526;49.300;2023-04-24T08:01:24;18.60;29.60
67557;DHT22;54387;53.526;49.300;2023-04-24T08:03:50;18.70;29.60
67557;DHT22;54387;53.526;49.300;2023-04-24T08:06:17;18.80;29.00
67557;DHT22;54387;53.526;49.300;2023-04-24T08:08:43;18.80;29.00
67557;DHT22;54387;53.526;49.300;2023-04-24T08:11:09;18.90;28.80
67557;DHT22;54387;53.526;49.300;2023-04-24T08:13:35;18.90;28.40
67557;DHT22;54387;53.526;49.300;2023-04-24T08:16:01;19.00;28.60
67557;DHT22;54387;53.526;49.300;2023-04-24T08:18:27;19.10;28.60
67557;DHT22;54387;53.526;49.300;2023-04-24T08:20:53;19.10;28.30
67557;DHT22;54387;53.526;49.300;2023-04-24T08:23:19;19.20;27.90
67557;DHT22;54387;53.526;49.300;2023-04-24T08:25:45;19.30;28.00
67557;DHT22;54387;53.526;49.300;2023-04-24T08:28:11;19.50;27.90
67557;DHT22;54387;53.526;49.300;2023-04-24T08:30:38;19.50;27.10
67557;DHT22;54387;53.526;49.300;2023-04-24T08:33:04;19.50;27.00
67557;DHT22;54387;53.526;49.300;2023-04-24T08:35:30;19.60;27.20
67557;DHT22;54387;53.526;49.300;2023-04-24T08:37:56;19.60;26.60
67557;DHT22;54387;53.526;49.300;2023-04-24T08:40:26;19.60;25.90
67557;DHT22;54387;53.526;49.300;2023-04-24T08:42:54;19.60;25.80
67557;DHT22;54387;53.526;49.300;2023-04-24T08:45:20;19.60;25.40
67557;DHT22;54387;53.526;49.300;2023-04-24T08:47:46;19.70;25.40
67557;DHT22;54387;53.526;49.300;2023-04-24T08:50:13;19.70;25.50
67557;DHT22;54387;53.526;49.300;2023-04-24T08:52:41;19.70;25.40
67557;DHT22;54387;53.526;49.300;2023-04-24T08:55:07;19.80;24.80
67557;DHT22;54387;53.526;49.300;2023-04-24T08:57:33;19.70;24.70
67557;DHT22;54387;53.526;49.300;2023-04-24T09:00:01;19.70;25.00
67557;DHT22;54387;53.526;49.300;2023-04-24T09:02:28;19.70;24.70
67557;DHT22;54387;53.526;49.300;2023-04-24T09:04:55;19.70;24.30
67557;DHT22;54387;53.526;49.300;2023-04-24T09:07:22;19.70;24.30
67557;DHT22;54387;53.526;49.300;2023-04-24T09:09:51;19.70;24.30
67557;DHT22;54387;53.526;49.300;2023-04-24T09:12:17;19.80;24.40
67557;DHT22;54387;53.526;49.300;2023-04-24T09:14:44;20.00;23.40
67557;DHT22;54387;53.526;49.300;2023-04-24T09:17:11;20.30;23.70
67557;DHT22;54387;53.526;49.300;2023-04-24T09:19:37;20.60;23.40
67557;DHT22;54387;53.526;49.300;2023-04-24T09:22:07;21.00;23.30
67557;DHT22;54387;53.526;49.300;2023-04-24T09:24:33;21.70;23.40
67557;DHT22;54387;53.526;49.300;2023-04-24T09:26:59;22.70;23.10
67557;DHT22;54387;53.526;49.300;2023-04-24T09:29:29;24.10;22.20
67557;DHT22;54387;53.526;49.300;2023-04-24T09:31:55;25.80;21.60
67557;DHT22;54387;53.526;49.300;2023-04-24T09:34:22;27.80;20.30
67557;DHT22;54387;53.526;49.300;2023-04-24T09:36:49;29.50;18.90
67557;DHT22;54387;53.526;49.300;2023-04-24T09:39:16;30.90;18.20
67557;DHT22;54387;53.526;49.300;2023-04-24T09:41:53;32.10;18.20
67557;DHT22;54387;53.526;49.300;2023-04-24T09:44:20;33.60;17.60
67557;DHT22;54387;53.526;49.300;2023-04-24T09:46:50;34.80;17.10
67557;DHT22;54387;53.526;49.300;2023-04-24T09:49:20;35.70;17.00
67557;DHT22;54387;53.526;49.300;2023-04-24T09:51:46;36.90;16.80
67557;DHT22;54387;53.526;49.300;2023-04-24T09:54:16;38.00;16.70
67557;DHT22;54387;53.526;49.300;2023-04-24T09:56:43;39.20;16.10
67557;DHT22;54387;53.526;49.300;2023-04-24T09:59:11;40.30;15.70
67557;DHT22;54387;53.526;49.300;2023-04-24T10:01:37;41.30;15.50
67557;DHT22;54387;53.526;49.300;2023-04-24T10:04:05;41.90;14.80
67557;DHT22;54387;53.526;49.300;2023-04-24T10:06:33;42.30;15.20
67557;DHT22;54387;53.526;49.300;2023-04-24T10:08:59;42.80;15.00
67557;DHT22;54387;53.526;49.300;2023-04-24T10:11:26;43.40;15.20
67557;DHT22;54387;53.526;49.300;2023-04-24T10:13:52;43.70;14.50
67557;DHT22;54387;53.526;49.300;2023-04-24T10:16:19;44.00;14.80
67557;DHT22;54387;53.526;49.300;2023-04-24T10:18:46;44.50;15.00
67557;DHT22;54387;53.526;49.300;2023-04-24T10:21:14;44.80;14.50
67557;DHT22;54387;53.526;49.300;2023-04-24T10:23:41;44.90;13.60
67557;DHT22;54387;53.526;49.300;2023-04-24T10:26:09;44.40;14.10
67557;DHT22;54387;53.526;49.300;2023-04-24T10:28:36;44.20;13.70
67557;DHT22;54387;53.526;49.300;2023-04-24T10:31:02;43.70;14.00
67557;DHT22;54387;53.526;49.300;2023-04-24T10:33:29;43.40;14.00
67557;DHT22;54387;53.526;49.300;2023-04-24T10:35:55;43.40;14.00
67557;DHT22;54387;53.526;49.300;2023-04-24T10:38:22;43.50;13.80
67557;DHT22;54387;53.526;49.300;2023-04-24T10:40:50;43.70;13.80
67557;DHT22;54387;53.526;49.300;2023-04-24T10:43:17;43.90;13.70
67557;DHT22;54387;53.526;49.300;2023-04-24T10:45:59;43.80;13.60
67557;DHT22;54387;53.526;49.300;2023-04-24T10:48:26;43.80;13.80
67557;DHT22;54387;53.526;49.300;2023-04-24T10:50:52;44.10;13.60
67557;DHT22;54387;53.526;49.300;2023-04-24T10:53:23;44.30;13.70
67557;DHT22;54387;53.526;49.300;2023-04-24T10:55:50;44.20;13.20
67557;DHT22;54387;53.526;49.300;2023-04-24T10:58:21;43.60;13.20
67557;DHT22;54387;53.526;49.300;2023-04-24T11:00:55;43.20;13.30
67557;DHT22;54387;53.526;49.300;2023-04-24T11:03:22;43.10;13.50
67557;DHT22;54387;53.526;49.300;2023-04-24T11:05:56;43.30;13.50
67557;DHT22;54387;53.526;49.300;2023-04-24T11:08:27;43.40;13.30
67557;DHT22;54387;53.526;49.300;2023-04-24T11:11:04;43.30;13.40
67557;DHT22;54387;53.526;49.300;2023-04-24T11:16:25;43.20;13.20
67557;DHT22;54387;53.526;49.300;2023-04-24T11:18:52;42.30;13.10
67557;DHT22;54387;53.526;49.300;2023-04-24T11:21:20;40.50;13.10
67557;DHT22;54387;53.526;49.300;2023-04-24T11:23:47;38.20;13.40
67557;DHT22;54387;53.526;49.300;2023-04-24T11:26:23;36.40;13.80
67557;DHT22;54387;53.526;49.300;2023-04-24T11:28:56;34.50;14.10
67557;DHT22;54387;53.526;49.300;2023-04-24T11:31:36;32.60;14.40
67557;DHT22;54387;53.526;49.300;2023-04-24T11:34:09;31.00;15.60
67557;DHT22;54387;53.526;49.300;2023-04-24T11:36:36;29.80;15.30
67557;DHT22;54387;53.526;49.300;2023-04-24T11:39:08;28.80;15.70
67557;DHT22;54387;53.526;49.300;2023-04-24T11:41:34;27.90;16.10
67557;DHT22;54387;53.526;49.300;2023-04-24T11:44:01;27.30;16.20
67557;DHT22;54387;53.526;49.300;2023-04-24T11:46:29;26.90;16.60
67557;DHT22;54387;53.526;49.300;2023-04-24T11:48:56;26.70;16.80
67557;DHT22;54387;53.526;49.300;2023-04-24T11:51:22;26.60;16.90
67557;DHT22;54387;53.526;49.300;2023-04-24T11:53:49;26.50;17.00
67557;DHT22;54387;53.526;49.300;2023-04-24T11:56:19;26.40;17.10
67557;DHT22;54387;53.526;49.300;2023-04-24T11:58:47;26.40;17.30
67557;DHT22;54387;53.526;49.300;2023-04-24T12:01:13;26.50;17.30
67557;DHT22;54387;53.526;49.300;2023-04-24T12:03:39;26.70;17.30
67557;DHT22;54387;53.526;49.300;2023-04-24T12:06:09;26.50;17.20
67557;DHT22;54387;53.526;49.300;2023-04-24T12:08:36;26.10;17.40
67557;DHT22;54387;53.526;49.300;2023-04-24T12:11:03;25.70;17.80
67557;DHT22;54387;53.526;49.300;2023-04-24T12:13:30;25.40;17.70
67557;DHT22;54387;53.526;49.300;2023-04-24T12:15:57;25.30;17.90
67557;DHT22;54387;53.526;49.300;2023-04-24T12:18:23;25.10;18.10
67557;DHT22;54387;53.526;49.300;2023-04-24T12:20:50;24.90;18.30
67557;DHT22;54387;53.526;49.300;2023-04-24T12:23:16;24.90;18.40
67557;DHT22;54387;53.526;49.300;2023-04-24T12:25:43;24.80;18.40
67557;DHT22;54387;53.526;49.300;2023-04-24T12:28:11;24.80;18.40
67557;DHT22;54387;53.526;49.300;2023-04-24T12:30:42;24.90;19.30
67557;DHT22;54387;53.526;49.300;2023-04-24T12:33:10;25.20;18.40
67557;DHT22;54387;53.526;49.300;2023-04-24T12:35:36;25.80;18.50
67557;DHT22;54387;53.526;49.300;2023-04-24T12:38:06;26.60;18.00
67557;DHT22;54387;53.526;49.300;2023-04-24T12:40:34;27.30;17.70
67557;DHT22;54387;53.526;49.300;2023-04-24T12:43:00;28.00;17.50
67557;DHT22;54387;53.526;49.300;2023-04-24T12:45:27;28.50;17.20
67557;DHT22;54387;53.526;49.300;2023-04-24T12:47:53;29.10;17.20
67557;DHT22;54387;53.526;49.300;2023-04-24T12:50:19;30.00;17.00
67557;DHT22;54387;53.526;49.300;2023-04-24T12:52:45;31.10;16.30
67557;DHT22;54387;53.526;49.300;2023-04-24T12:55:11;32.30;16.30
67557;DHT22;54387;53.526;49.300;2023-04-24T12:57:38;33.70;15.90
67557;DHT22;54387;53.526;49.300;2023-04-24T13:00:06;34.90;15.50
67557;DHT22;54387;53.526;49.300;2023-04-24T13:02:32;35.60;14.80
67557;DHT22;54387;53.526;49.300;2023-04-24T13:04:59;36.10;15.10
67557;DHT22;54387;53.526;49.300;2023-04-24T13:07:25;36.70;14.50
67557;DHT22;54387;53.526;49.300;2023-04-24T13:09:52;36.90;14.40
67557;DHT22;54387;53.526;49.300;2023-04-24T13:12:18;36.70;14.20
67557;DHT22;54387;53.526;49.300;2023-04-24T13:14:45;36.70;14.70
67557;DHT22;54387;53.526;49.300;2023-04-24T13:17:12;37.00;14.50
67557;DHT22;54387;53.526;49.300;2023-04-24T13:19:40;37.30;14.50
67557;DHT22;54387;53.526;49.300;2023-04-24T13:22:06;37.60;14.20
67557;DHT22;54387;53.526;49.300;2023-04-24T13:24:33;37.40;14.30
67557;DHT22;54387;53.526;49.300;2023-04-24T13:26:59;36.90;14.00
67557;DHT22;54387;53.526;49.300;2023-04-24T13:29:26;36.00;14.10
67557;DHT22;54387;53.526;49.300;2023-04-24T13:31:53;35.00;14.30
67557;DHT22;54387;53.526;49.300;2023-04-24T13:34:22;33.90;14.50
67557;DHT22;54387;53.526;49.300;2023-04-24T13:36:49;32.90;14.60
67557;DHT22;54387;53.526;49.300;2023-04-24T13:39:16;32.30;15.00
67557;DHT22;54387;53.526;49.300;2023-04-24T13:41:42;31.70;15.10
67557;DHT22;54387;53.526;49.300;2023-04-24T13:44:08;31.40;15.10
67557;DHT22;54387;53.526;49.300;2023-04-24T13:46:35;31.20;15.20
67557;DHT22;54387;53.526;49.300;2023-04-24T13:49:01;31.00;15.30
67557;DHT22;54387;53.526;49.300;2023-04-24T13:51:29;30.90;15.60
67557;DHT22;54387;53.526;49.300;2023-04-24T13:53:55;31.20;15.70
67557;DHT22;54387;53.526;49.300;2023-04-24T13:56:22;31.60;15.40
67557;DHT22;54387;53.526;49.300;2023-04-24T13:58:48;31.80;15.20
67557;DHT22;54387;53.526;49.300;2023-04-24T14:01:14;31.60;15.10
67557;DHT22;54387;53.526;49.300;2023-04-24T14:03:41;31.70;15.20
67557;DHT22;54387;53.526;49.300;2023-04-24T14:06:08;31.70;15.20
67557;DHT22;54387;53.526;49.300;2023-04-24T14:08:35;31.80;15.00
67557;DHT22;54387;53.526;49.300;2023-04-24T14:11:01;31.90;14.90
67557;DHT22;54387;53.526;49.300;2023-04-24T14:13:27;31.70;14.90
67557;DHT22;54387;53.526;49.300;2023-04-24T14:15:53;31.00;14.70
67557;DHT22;54387;53.526;49.300;2023-04-24T14:18:19;30.10;15.10
67557;DHT22;54387;53.526;49.300;2023-04-24T14:20:45;29.10;15.30
67557;DHT22;54387;53.526;49.300;2023-04-24T14:23:11;28.30;15.70
67557;DHT22;54387;53.526;49.300;2023-04-24T14:25:37;27.80;16.10
67557;DHT22;54387;53.526;49.300;2023-04-24T14:28:05;27.60;16.30
67557;DHT22;54387;53.526;49.300;2023-04-24T14:30:31;27.60;16.30
67557;DHT22;54387;53.526;49.300;2023-04-24T14:32:57;27.60;16.60
67557;DHT22;54387;53.526;49.300;2023-04-24T14:35:23;27.30;16.50
67557;DHT22;54387;53.526;49.300;2023-04-24T14:37:49;27.30;16.70
67557;DHT22;54387;53.526;49.300;2023-04-24T14:40:15;27.20;16.60
67557;DHT22;54387;53.526;49.300;2023-04-24T14:42:41;26.90;16.90
67557;DHT22;54387;53.526;49.300;2023-04-24T14:45:07;26.60;17.00
67557;DHT22;54387;53.526;49.300;2023-04-24T14:47:34;26.50;17.10
67557;DHT22;54387;53.526;49.300;2023-04-24T14:50:00;26.60;17.20
67557;DHT22;54387;53.526;49.300;2023-04-24T14:52:26;26.40;17.30
67557;DHT22;54387;53.526;49.300;2023-04-24T14:54:52;25.90;17.30
67557;DHT22;54387;53.526;49.300;2023-04-24T14:57:18;25.30;17.50
67557;DHT22;54387;53.526;49.300;2023-04-24T14:59:44;24.70;17.90
67557;DHT22;54387;53.526;49.300;2023-04-24T15:02:10;24.10;18.50
67557;DHT22;54387;53.526;49.300;2023-04-24T15:04:36;23.50;19.10
67557;DHT22;54387;53.526;49.300;2023-04-24T15:07:03;23.00;19.30
67557;DHT22;54387;53.526;49.300;2023-04-24T15:09:29;22.40;19.70
67557;DHT22;54387;53.526;49.300;2023-04-24T15:11:58;22.00;20.00
67557;DHT22;54387;53.526;49.300;2023-04-24T15:14:24;21.60;20.30